sensor_id;sensor_type;location;lat;lon;timestamp;temperature;humidity
36292;DHT22;22327;51.208;6.418;2022-11-15T00:01:46;13.20;95.30
36292;DHT22;22327;51.208;6.418;2022-11-15T00:04:11;13.20;95.40
36292;DHT22;22327;51.208;6.418;2022-11-15T00:06:37;13.20;95.40
36292;DHT22;22327;51.208;6.418;2022-11-15T00:09:03;13.30;95.80
36292;DHT22;22327;51.208;6.418;2022-11-15T00:11:28;13.30;95.40
36292;DHT22;22327;51.208;6.418;2022-11-15T00:13:55;13.30;95.50
36292;DHT22;22327;51.208;6.418;2022-11-15T00:16:21;13.40;95.50
36292;DHT22;22327;51.208;6.418;2022-11-15T00:18:47;13.40;95.60
36292;DHT22;22327;51.208;6.418;2022-11-15T00:21:13;13.40;95.50
36292;DHT22;22327;51.208;6.418;2022-11-15T00:23:40;13.50;95.50
36292;DHT22;22327;51.208;6.418;2022-11-15T00:26:06;13.50;95.70
36292;DHT22;22327;51.208;6.418;2022-11-15T00:28:31;13.50;95.60
36292;DHT22;22327;51.208;6.418;2022-11-15T00:31:01;13.60;95.70
36292;DHT22;22327;51.208;6.418;2022-11-15T00:33:27;13.60;95.70
36292;DHT22;22327;51.208;6.418;2022-11-15T00:35:53;13.60;95.70
36292;DHT22;22327;51.208;6.418;2022-11-15T00:38:19;13.70;95.80
36292;DHT22;22327;51.208;6.418;2022-11-15T00:40:44;13.70;95.90
36292;DHT22;22327;51.208;6.418;2022-11-15T00:43:10;13.60;95.90
36292;DHT22;22327;51.208;6.418;2022-11-15T00:45:35;13.70;96.00
36292;DHT22;22327;51.208;6.418;2022-11-15T00:48:01;13.60;96.10
36292;DHT22;22327;51.208;6.418;2022-11-15T00:50:26;13.70;96.20
36292;DHT22;22327;51.208;6.418;2022-11-15T00:52:52;13.70;96.30
36292;DHT22;22327;51.208;6.418;2022-11-15T00:55:18;13.70;96.30
36292;DHT22;22327;51.208;6.418;2022-11-15T00:57:45;13.80;96.30
36292;DHT22;22327;51.208;6.418;2022-11-15T01:00:10;13.80;96.20
36292;DHT22;22327;51.208;6.418;2022-11-15T01:02:36;13.80;96.20
36292;DHT22;22327;51.208;6.418;2022-11-15T01:05:02;13.90;96.30
36292;DHT22;22327;51.208;6.418;2022-11-15T01:07:28;13.90;96.20
36292;DHT22;22327;51.208;6.418;2022-11-15T01:09:53;13.80;96.40
36292;DHT22;22327;51.208;6.418;2022-11-15T01:12:19;13.80;96.60
36292;DHT22;22327;51.208;6.418;2022-11-15T01:14:44;13.80;96.60
36292;DHT22;22327;51.208;6.418;2022-11-15T01:17:10;13.80;96.60
36292;DHT22;22327;51.208;6.418;2022-11-15T01:19:35;13.80;96.70
36292;DHT22;22327;51.208;6.418;2022-11-15T01:22:01;13.90;96.90
36292;DHT22;22327;51.208;6.418;2022-11-15T01:24:26;13.90;97.00
36292;DHT22;22327;51.208;6.418;2022-11-15T01:26:52;14.00;97.10
36292;DHT22;22327;51.208;6.418;2022-11-15T01:29:17;14.00;97.00
36292;DHT22;22327;51.208;6.418;2022-11-15T01:31:43;14.00;97.10
36292;DHT22;22327;51.208;6.418;2022-11-15T01:34:08;14.00;97.10
36292;DHT22;22327;51.208;6.418;2022-11-15T01:36:34;14.00;97.10
36292;DHT22;22327;51.208;6.418;2022-11-15T01:39:00;14.00;97.20
36292;DHT22;22327;51.208;6.418;2022-11-15T01:41:29;14.00;97.30
36292;DHT22;22327;51.208;6.418;2022-11-15T01:46:44;14.10;97.40
36292;DHT22;22327;51.208;6.418;2022-11-15T01:49:16;14.10;97.60
36292;DHT22;22327;51.208;6.418;2022-11-15T01:51:43;14.20;97.60
36292;DHT22;22327;51.208;6.418;2022-11-15T01:54:11;14.30;97.60
36292;DHT22;22327;51.208;6.418;2022-11-15T01:56:44;14.30;97.60
36292;DHT22;22327;51.208;6.418;2022-11-15T01:59:11;14.40;97.70
36292;DHT22;22327;51.208;6.418;2022-11-15T02:01:37;14.40;97.60
36292;DHT22;22327;51.208;6.418;2022-11-15T02:04:10;14.40;97.60
36292;DHT22;22327;51.208;6.418;2022-11-15T02:06:38;14.50;97.60
36292;DHT22;22327;51.208;6.418;2022-11-15T02:09:04;14.50;97.60
36292;DHT22;22327;51.208;6.418;2022-11-15T02:11:30;14.50;97.60
36292;DHT22;22327;51.208;6.418;2022-11-15T02:13:56;14.60;97.60
36292;DHT22;22327;51.208;6.418;2022-11-15T02:16:55;14.60;97.40
36292;DHT22;22327;51.208;6.418;2022-11-15T02:22:14;14.60;97.70
36292;DHT22;22327;51.208;6.418;2022-11-15T02:25:52;14.60;97.70
36292;DHT22;22327;51.208;6.418;2022-11-15T02:35:52;14.80;97.60
36292;DHT22;22327;51.208;6.418;2022-11-15T02:38:40;14.80;97.60
36292;DHT22;22327;51.208;6.418;2022-11-15T02:41:20;14.80;97.30
36292;DHT22;22327;51.208;6.418;2022-11-15T02:43:55;14.70;97.40
36292;DHT22;22327;51.208;6.418;2022-11-15T02:49:14;14.70;97.50
36292;DHT22;22327;51.208;6.418;2022-11-15T02:51:41;14.80;97.60
36292;DHT22;22327;51.208;6.418;2022-11-15T02:54:09;14.80;97.80
36292;DHT22;22327;51.208;6.418;2022-11-15T02:56:36;14.90;97.30
36292;DHT22;22327;51.208;6.418;2022-11-15T02:59:18;14.90;97.30
36292;DHT22;22327;51.208;6.418;2022-11-15T03:02:02;15.00;97.30
36292;DHT22;22327;51.208;6.418;2022-11-15T03:04:37;15.00;97.30
36292;DHT22;22327;51.208;6.418;2022-11-15T03:07:26;15.00;97.40
36292;DHT22;22327;51.208;6.418;2022-11-15T03:10:06;15.00;97.50
36292;DHT22;22327;51.208;6.418;2022-11-15T03:15:17;14.90;97.40
36292;DHT22;22327;51.208;6.418;2022-11-15T03:18:20;14.90;97.30
36292;DHT22;22327;51.208;6.418;2022-11-15T03:20:44;14.80;97.40
36292;DHT22;22327;51.208;6.418;2022-11-15T03:23:12;14.80;97.60
36292;DHT22;22327;51.208;6.418;2022-11-15T03:25:41;14.80;97.50
36292;DHT22;22327;51.208;6.418;2022-11-15T03:28:11;14.80;97.50
36292;DHT22;22327;51.208;6.418;2022-11-15T03:30:38;14.70;97.50
36292;DHT22;22327;51.208;6.418;2022-11-15T03:33:05;14.70;97.50
36292;DHT22;22327;51.208;6.418;2022-11-15T03:35:37;14.70;97.60
36292;DHT22;22327;51.208;6.418;2022-11-15T03:46:14;14.80;97.60
36292;DHT22;22327;51.208;6.418;2022-11-15T03:48:48;14.80;97.70
36292;DHT22;22327;51.208;6.418;2022-11-15T03:51:14;14.90;97.70
36292;DHT22;22327;51.208;6.418;2022-11-15T03:53:41;14.90;97.70
36292;DHT22;22327;51.208;6.418;2022-11-15T03:56:06;14.90;97.80
36292;DHT22;22327;51.208;6.418;2022-11-15T03:58:32;15.00;97.70
36292;DHT22;22327;51.208;6.418;2022-11-15T04:00:58;15.10;97.80
36292;DHT22;22327;51.208;6.418;2022-11-15T04:03:24;15.10;97.70
36292;DHT22;22327;51.208;6.418;2022-11-15T04:05:50;15.00;97.80
36292;DHT22;22327;51.208;6.418;2022-11-15T04:08:15;15.10;97.80
36292;DHT22;22327;51.208;6.418;2022-11-15T04:10:41;15.00;97.90
36292;DHT22;22327;51.208;6.418;2022-11-15T04:13:06;15.10;97.90
36292;DHT22;22327;51.208;6.418;2022-11-15T04:15:32;15.20;97.80
36292;DHT22;22327;51.208;6.418;2022-11-15T04:17:58;15.20;97.70
36292;DHT22;22327;51.208;6.418;2022-11-15T04:20:26;15.20;97.70
36292;DHT22;22327;51.208;6.418;2022-11-15T04:23:19;15.30;97.60
36292;DHT22;22327;51.208;6.418;2022-11-15T04:26:15;15.30;97.70
36292;DHT22;22327;51.208;6.418;2022-11-15T04:28:41;15.30;97.80
36292;DHT22;22327;51.208;6.418;2022-11-15T04:31:26;15.30;97.80
36292;DHT22;22327;51.208;6.418;2022-11-15T04:33:52;15.40;97.80
36292;DHT22;22327;51.208;6.418;2022-11-15T04:36:18;15.40;97.70
36292;DHT22;22327;51.208;6.418;2022-11-15T04:39:02;15.50;97.60
36292;DHT22;22327;51.208;6.418;2022-11-15T04:41:27;15.50;97.80
36292;DHT22;22327;51.208;6.418;2022-11-15T04:43:54;15.50;97.50
36292;DHT22;22327;51.208;6.418;2022-11-15T04:46:20;15.60;97.40
36292;DHT22;22327;51.208;6.418;2022-11-15T04:48:46;15.60;97.40
36292;DHT22;22327;51.208;6.418;2022-11-15T04:51:11;15.60;97.30
36292;DHT22;22327;51.208;6.418;2022-11-15T04:53:37;15.60;97.30
36292;DHT22;22327;51.208;6.418;2022-11-15T04:56:02;15.60;97.30
36292;DHT22;22327;51.208;6.418;2022-11-15T04:58:28;15.60;97.20
36292;DHT22;22327;51.208;6.418;2022-11-15T05:00:53;15.60;97.20
36292;DHT22;22327;51.208;6.418;2022-11-15T05:03:19;15.60;97.30
36292;DHT22;22327;51.208;6.418;2022-11-15T05:06:03;15.70;97.20
36292;DHT22;22327;51.208;6.418;2022-11-15T05:08:29;15.60;97.20
36292;DHT22;22327;51.208;6.418;2022-11-15T05:10:54;15.70;97.30
36292;DHT22;22327;51.208;6.418;2022-11-15T05:13:20;15.70;97.20
36292;DHT22;22327;51.208;6.418;2022-11-15T05:15:47;15.70;97.10
36292;DHT22;22327;51.208;6.418;2022-11-15T05:18:12;15.70;97.20
36292;DHT22;22327;51.208;6.418;2022-11-15T05:20:38;15.70;97.20
36292;DHT22;22327;51.208;6.418;2022-11-15T05:23:03;15.60;97.20
36292;DHT22;22327;51.208;6.418;2022-11-15T05:25:29;15.70;97.20
36292;DHT22;22327;51.208;6.418;2022-11-15T05:27:55;15.70;97.30
36292;DHT22;22327;51.208;6.418;2022-11-15T05:30:20;15.70;97.60
36292;DHT22;22327;51.208;6.418;2022-11-15T05:32:46;15.80;97.20
36292;DHT22;22327;51.208;6.418;2022-11-15T05:35:21;15.70;97.30
36292;DHT22;22327;51.208;6.418;2022-11-15T05:37:51;15.70;97.40
36292;DHT22;22327;51.208;6.418;2022-11-15T05:40:16;15.70;97.50
36292;DHT22;22327;51.208;6.418;2022-11-15T05:42:42;15.70;97.60
36292;DHT22;22327;51.208;6.418;2022-11-15T05:45:08;15.70;97.60
36292;DHT22;22327;51.208;6.418;2022-11-15T05:47:35;15.70;97.60
36292;DHT22;22327;51.208;6.418;2022-11-15T05:50:02;15.60;97.70
36292;DHT22;22327;51.208;6.418;2022-11-15T05:52:30;15.60;97.70
36292;DHT22;22327;51.208;6.418;2022-11-15T05:54:58;15.60;97.90
36292;DHT22;22327;51.208;6.418;2022-11-15T05:57:24;15.60;97.90
36292;DHT22;22327;51.208;6.418;2022-11-15T05:59:49;15.60;97.90
36292;DHT22;22327;51.208;6.418;2022-11-15T06:02:15;15.60;97.90
36292;DHT22;22327;51.208;6.418;2022-11-15T06:04:41;15.70;98.00
36292;DHT22;22327;51.208;6.418;2022-11-15T06:07:07;15.60;97.80
36292;DHT22;22327;51.208;6.418;2022-11-15T06:09:32;15.70;97.90
36292;DHT22;22327;51.208;6.418;2022-11-15T06:11:57;15.70;97.90
36292;DHT22;22327;51.208;6.418;2022-11-15T06:14:23;15.70;97.90
36292;DHT22;22327;51.208;6.418;2022-11-15T06:16:48;15.80;97.70
36292;DHT22;22327;51.208;6.418;2022-11-15T06:19:14;15.70;97.70
36292;DHT22;22327;51.208;6.418;2022-11-15T06:21:40;15.70;97.70
36292;DHT22;22327;51.208;6.418;2022-11-15T06:24:06;15.60;97.80
36292;DHT22;22327;51.208;6.418;2022-11-15T06:26:31;15.60;97.80
36292;DHT22;22327;51.208;6.418;2022-11-15T06:28:57;15.60;97.70
36292;DHT22;22327;51.208;6.418;2022-11-15T06:31:23;15.50;97.70
36292;DHT22;22327;51.208;6.418;2022-11-15T06:33:48;15.50;97.90
36292;DHT22;22327;51.208;6.418;2022-11-15T06:36:15;15.50;97.90
36292;DHT22;22327;51.208;6.418;2022-11-15T06:38:45;15.50;97.90
36292;DHT22;22327;51.208;6.418;2022-11-15T06:41:12;15.50;97.90
36292;DHT22;22327;51.208;6.418;2022-11-15T06:43:38;15.60;97.80
36292;DHT22;22327;51.208;6.418;2022-11-15T06:46:05;15.60;97.60
36292;DHT22;22327;51.208;6.418;2022-11-15T06:48:31;15.60;97.50
36292;DHT22;22327;51.208;6.418;2022-11-15T06:50:59;15.60;97.40
36292;DHT22;22327;51.208;6.418;2022-11-15T06:53:25;15.60;97.40
36292;DHT22;22327;51.208;6.418;2022-11-15T06:55:51;15.60;97.00
36292;DHT22;22327;51.208;6.418;2022-11-15T06:58:17;15.50;96.90
36292;DHT22;22327;51.208;6.418;2022-11-15T07:00:43;15.50;96.80
36292;DHT22;22327;51.208;6.418;2022-11-15T07:03:08;15.50;96.90
36292;DHT22;22327;51.208;6.418;2022-11-15T07:05:34;15.50;96.90
36292;DHT22;22327;51.208;6.418;2022-11-15T07:08:00;15.60;96.90
36292;DHT22;22327;51.208;6.418;2022-11-15T07:10:26;15.60;97.00
36292;DHT22;22327;51.208;6.418;2022-11-15T07:12:53;15.50;97.00
36292;DHT22;22327;51.208;6.418;2022-11-15T07:15:20;15.60;97.10
36292;DHT22;22327;51.208;6.418;2022-11-15T07:17:45;15.50;97.00
36292;DHT22;22327;51.208;6.418;2022-11-15T07:20:12;15.50;97.10
36292;DHT22;22327;51.208;6.418;2022-11-15T07:22:39;15.50;97.10
36292;DHT22;22327;51.208;6.418;2022-11-15T07:25:05;15.40;97.00
36292;DHT22;22327;51.208;6.418;2022-11-15T07:27:31;15.40;97.10
36292;DHT22;22327;51.208;6.418;2022-11-15T07:29:56;15.40;97.00
36292;DHT22;22327;51.208;6.418;2022-11-15T07:32:22;15.40;97.00
36292;DHT22;22327;51.208;6.418;2022-11-15T07:34:47;15.40;96.60
36292;DHT22;22327;51.208;6.418;2022-11-15T07:37:13;15.30;96.80
36292;DHT22;22327;51.208;6.418;2022-11-15T07:39:38;15.40;96.90
36292;DHT22;22327;51.208;6.418;2022-11-15T07:42:04;15.40;96.70
36292;DHT22;22327;51.208;6.418;2022-11-15T07:44:48;15.40;96.60
36292;DHT22;22327;51.208;6.418;2022-11-15T07:47:13;15.20;96.70
36292;DHT22;22327;51.208;6.418;2022-11-15T07:49:39;15.20;96.80
36292;DHT22;22327;51.208;6.418;2022-11-15T07:52:05;15.20;96.80
36292;DHT22;22327;51.208;6.418;2022-11-15T07:54:30;15.30;96.70
36292;DHT22;22327;51.208;6.418;2022-11-15T07:56:56;15.40;96.60
36292;DHT22;22327;51.208;6.418;2022-11-15T07:59:21;15.40;96.40
36292;DHT22;22327;51.208;6.418;2022-11-15T08:01:47;15.50;96.40
36292;DHT22;22327;51.208;6.418;2022-11-15T08:04:12;15.60;96.30
36292;DHT22;22327;51.208;6.418;2022-11-15T08:06:38;15.60;96.00
36292;DHT22;22327;51.208;6.418;2022-11-15T08:09:03;15.60;96.00
36292;DHT22;22327;51.208;6.418;2022-11-15T08:11:29;15.60;96.10
36292;DHT22;22327;51.208;6.418;2022-11-15T08:13:55;15.70;95.70
36292;DHT22;22327;51.208;6.418;2022-11-15T08:16:20;15.80;95.80
36292;DHT22;22327;51.208;6.418;2022-11-15T08:18:46;15.90;95.90
36292;DHT22;22327;51.208;6.418;2022-11-15T08:21:16;16.00;95.60
36292;DHT22;22327;51.208;6.418;2022-11-15T08:23:43;16.10;95.60
36292;DHT22;22327;51.208;6.418;2022-11-15T08:26:09;16.20;95.60
36292;DHT22;22327;51.208;6.418;2022-11-15T08:28:34;16.30;95.50
36292;DHT22;22327;51.208;6.418;2022-11-15T08:31:00;16.40;95.40
36292;DHT22;22327;51.208;6.418;2022-11-15T08:33:26;16.50;95.10
36292;DHT22;22327;51.208;6.418;2022-11-15T08:35:52;16.50;95.00
36292;DHT22;22327;51.208;6.418;2022-11-15T08:38:17;16.60;95.00
36292;DHT22;22327;51.208;6.418;2022-11-15T08:40:43;16.50;94.80
36292;DHT22;22327;51.208;6.418;2022-11-15T08:43:08;16.50;95.00
36292;DHT22;22327;51.208;6.418;2022-11-15T08:45:35;16.50;95.10
36292;DHT22;22327;51.208;6.418;2022-11-15T08:48:02;16.60;94.90
36292;DHT22;22327;51.208;6.418;2022-11-15T08:50:27;16.70;94.70
36292;DHT22;22327;51.208;6.418;2022-11-15T08:52:53;16.80;94.80
36292;DHT22;22327;51.208;6.418;2022-11-15T08:55:19;16.80;94.60
36292;DHT22;22327;51.208;6.418;2022-11-15T08:57:44;16.90;94.40
36292;DHT22;22327;51.208;6.418;2022-11-15T09:00:11;17.10;94.00
36292;DHT22;22327;51.208;6.418;2022-11-15T09:02:38;17.30;93.90
36292;DHT22;22327;51.208;6.418;2022-11-15T09:05:04;17.60;92.80
36292;DHT22;22327;51.208;6.418;2022-11-15T09:07:30;17.50;91.90
36292;DHT22;22327;51.208;6.418;2022-11-15T09:09:57;17.50;91.60
36292;DHT22;22327;51.208;6.418;2022-11-15T09:12:23;17.50;91.30
36292;DHT22;22327;51.208;6.418;2022-11-15T09:14:48;17.40;90.70
36292;DHT22;22327;51.208;6.418;2022-11-15T09:17:14;17.30;90.80
36292;DHT22;22327;51.208;6.418;2022-11-15T09:19:39;17.30;91.20
36292;DHT22;22327;51.208;6.418;2022-11-15T09:22:06;17.30;90.70
36292;DHT22;22327;51.208;6.418;2022-11-15T09:24:33;17.30;90.30
36292;DHT22;22327;51.208;6.418;2022-11-15T09:26:59;17.20;90.30
36292;DHT22;22327;51.208;6.418;2022-11-15T09:29:24;17.10;90.20
36292;DHT22;22327;51.208;6.418;2022-11-15T09:31:52;17.20;90.40
36292;DHT22;22327;51.208;6.418;2022-11-15T09:34:17;17.20;90.40
36292;DHT22;22327;51.208;6.418;2022-11-15T09:36:43;17.10;90.50
36292;DHT22;22327;51.208;6.418;2022-11-15T09:39:09;17.10;90.60
36292;DHT22;22327;51.208;6.418;2022-11-15T09:41:40;17.20;90.70
36292;DHT22;22327;51.208;6.418;2022-11-15T09:49:26;17.10;90.50
36292;DHT22;22327;51.208;6.418;2022-11-15T09:51:53;17.00;90.60
36292;DHT22;22327;51.208;6.418;2022-11-15T09:57:05;17.10;90.50
36292;DHT22;22327;51.208;6.418;2022-11-15T09:59:49;17.00;90.30
36292;DHT22;22327;51.208;6.418;2022-11-15T10:05:19;17.10;90.70
36292;DHT22;22327;51.208;6.418;2022-11-15T10:10:34;17.00;90.20
36292;DHT22;22327;51.208;6.418;2022-11-15T10:13:02;17.10;90.50
36292;DHT22;22327;51.208;6.418;2022-11-15T10:15:28;17.20;90.50
36292;DHT22;22327;51.208;6.418;2022-11-15T10:18:16;17.20;87.90
36292;DHT22;22327;51.208;6.418;2022-11-15T10:20:58;17.10;86.80
36292;DHT22;22327;51.208;6.418;2022-11-15T10:23:24;17.10;87.40
36292;DHT22;22327;51.208;6.418;2022-11-15T10:25:55;17.10;86.60
36292;DHT22;22327;51.208;6.418;2022-11-15T10:28:27;17.00;85.40
36292;DHT22;22327;51.208;6.418;2022-11-15T10:30:55;16.90;85.50
36292;DHT22;22327;51.208;6.418;2022-11-15T10:36:15;16.80;86.20
36292;DHT22;22327;51.208;6.418;2022-11-15T10:41:15;16.80;86.50
36292;DHT22;22327;51.208;6.418;2022-11-15T10:43:40;16.70;86.20
36292;DHT22;22327;51.208;6.418;2022-11-15T10:46:22;16.80;86.70
36292;DHT22;22327;51.208;6.418;2022-11-15T10:48:48;16.80;85.60
36292;DHT22;22327;51.208;6.418;2022-11-15T10:51:22;16.80;85.60
36292;DHT22;22327;51.208;6.418;2022-11-15T10:53:51;16.90;84.70
36292;DHT22;22327;51.208;6.418;2022-11-15T10:56:21;16.90;84.60
36292;DHT22;22327;51.208;6.418;2022-11-15T10:58:56;16.90;84.30
36292;DHT22;22327;51.208;6.418;2022-11-15T11:01:24;16.90;84.00
36292;DHT22;22327;51.208;6.418;2022-11-15T11:06:29;16.90;82.70
36292;DHT22;22327;51.208;6.418;2022-11-15T11:09:00;16.90;81.10
36292;DHT22;22327;51.208;6.418;2022-11-15T11:11:49;16.90;81.00
36292;DHT22;22327;51.208;6.418;2022-11-15T11:14:23;16.90;79.70
36292;DHT22;22327;51.208;6.418;2022-11-15T11:20:00;16.80;78.40
36292;DHT22;22327;51.208;6.418;2022-11-15T11:31:18;16.70;76.50
36292;DHT22;22327;51.208;6.418;2022-11-15T11:34:00;16.70;76.80
36292;DHT22;22327;51.208;6.418;2022-11-15T11:42:15;17.10;76.20
36292;DHT22;22327;51.208;6.418;2022-11-15T11:48:00;17.20;74.10
36292;DHT22;22327;51.208;6.418;2022-11-15T11:50:30;17.20;72.70
36292;DHT22;22327;51.208;6.418;2022-11-15T11:53:02;17.30;71.90
36292;DHT22;22327;51.208;6.418;2022-11-15T11:55:34;17.30;71.20
36292;DHT22;22327;51.208;6.418;2022-11-15T11:58:26;17.30;71.80
36292;DHT22;22327;51.208;6.418;2022-11-15T12:00:56;17.30;69.90
36292;DHT22;22327;51.208;6.418;2022-11-15T12:03:38;17.30;68.40
36292;DHT22;22327;51.208;6.418;2022-11-15T12:06:32;17.40;68.10
36292;DHT22;22327;51.208;6.418;2022-11-15T12:09:11;17.50;66.40
36292;DHT22;22327;51.208;6.418;2022-11-15T12:11:58;17.40;65.40
36292;DHT22;22327;51.208;6.418;2022-11-15T12:17:04;17.50;66.90
36292;DHT22;22327;51.208;6.418;2022-11-15T12:19:30;17.50;64.80
36292;DHT22;22327;51.208;6.418;2022-11-15T12:21:59;17.50;65.50
36292;DHT22;22327;51.208;6.418;2022-11-15T12:24:33;17.60;64.70
36292;DHT22;22327;51.208;6.418;2022-11-15T12:30:02;17.60;64.20
36292;DHT22;22327;51.208;6.418;2022-11-15T12:32:34;17.60;65.00
36292;DHT22;22327;51.208;6.418;2022-11-15T12:35:04;17.70;64.80
36292;DHT22;22327;51.208;6.418;2022-11-15T12:43:01;17.80;62.90
36292;DHT22;22327;51.208;6.418;2022-11-15T12:45:38;17.90;63.70
36292;DHT22;22327;51.208;6.418;2022-11-15T13:01:08;17.60;63.70
36292;DHT22;22327;51.208;6.418;2022-11-15T13:03:34;17.50;63.70
36292;DHT22;22327;51.208;6.418;2022-11-15T13:06:04;17.50;64.70
36292;DHT22;22327;51.208;6.418;2022-11-15T13:08:45;17.60;65.20
36292;DHT22;22327;51.208;6.418;2022-11-15T13:11:44;17.70;64.20
36292;DHT22;22327;51.208;6.418;2022-11-15T13:19:52;17.80;65.70
36292;DHT22;22327;51.208;6.418;2022-11-15T13:22:18;17.70;66.20
36292;DHT22;22327;51.208;6.418;2022-11-15T13:25:03;17.70;67.00
36292;DHT22;22327;51.208;6.418;2022-11-15T13:27:29;17.60;68.30
36292;DHT22;22327;51.208;6.418;2022-11-15T13:29:54;17.50;68.90
36292;DHT22;22327;51.208;6.418;2022-11-15T13:32:20;17.50;69.80
36292;DHT22;22327;51.208;6.418;2022-11-15T13:34:48;17.50;70.60
36292;DHT22;22327;51.208;6.418;2022-11-15T13:39:45;17.40;71.70
36292;DHT22;22327;51.208;6.418;2022-11-15T13:42:19;17.40;72.20
36292;DHT22;22327;51.208;6.418;2022-11-15T13:45:02;17.50;73.50
36292;DHT22;22327;51.208;6.418;2022-11-15T13:47:29;17.60;73.10
36292;DHT22;22327;51.208;6.418;2022-11-15T13:49:58;17.60;73.00
36292;DHT22;22327;51.208;6.418;2022-11-15T13:52:34;17.60;73.30
36292;DHT22;22327;51.208;6.418;2022-11-15T13:57:51;17.60;74.40
36292;DHT22;22327;51.208;6.418;2022-11-15T14:00:40;17.50;74.80
36292;DHT22;22327;51.208;6.418;2022-11-15T14:03:24;17.50;75.20
36292;DHT22;22327;51.208;6.418;2022-11-15T14:06:19;17.50;75.90
36292;DHT22;22327;51.208;6.418;2022-11-15T14:11:35;17.60;76.40
36292;DHT22;22327;51.208;6.418;2022-11-15T14:14:11;17.50;76.80
36292;DHT22;22327;51.208;6.418;2022-11-15T14:16:45;17.60;76.90
36292;DHT22;22327;51.208;6.418;2022-11-15T14:22:09;17.60;77.20
36292;DHT22;22327;51.208;6.418;2022-11-15T14:24:35;17.60;77.40
36292;DHT22;22327;51.208;6.418;2022-11-15T14:27:27;17.50;77.60
36292;DHT22;22327;51.208;6.418;2022-11-15T14:29:53;17.50;78.00
36292;DHT22;22327;51.208;6.418;2022-11-15T14:32:27;17.40;78.70
36292;DHT22;22327;51.208;6.418;2022-11-15T14:34:59;17.50;78.80
36292;DHT22;22327;51.208;6.418;2022-11-15T14:37:29;17.50;78.80
36292;DHT22;22327;51.208;6.418;2022-11-15T14:39:58;17.50;79.00
36292;DHT22;22327;51.208;6.418;2022-11-15T14:42:24;17.40;79.30
36292;DHT22;22327;51.208;6.418;2022-11-15T14:44:50;17.30;79.90
36292;DHT22;22327;51.208;6.418;2022-11-15T14:47:16;17.40;79.90
36292;DHT22;22327;51.208;6.418;2022-11-15T14:49:42;17.40;80.00
36292;DHT22;22327;51.208;6.418;2022-11-15T14:52:29;17.40;79.90
36292;DHT22;22327;51.208;6.418;2022-11-15T14:54:56;17.50;79.90
36292;DHT22;22327;51.208;6.418;2022-11-15T14:57:23;17.40;80.30
36292;DHT22;22327;51.208;6.418;2022-11-15T14:59:49;17.40;80.50
36292;DHT22;22327;51.208;6.418;2022-11-15T15:02:22;17.40;80.40
36292;DHT22;22327;51.208;6.418;2022-11-15T15:04:49;17.50;80.40
36292;DHT22;22327;51.208;6.418;2022-11-15T15:07:15;17.40;80.60
36292;DHT22;22327;51.208;6.418;2022-11-15T15:09:41;17.40;80.80
36292;DHT22;22327;51.208;6.418;2022-11-15T15:12:21;17.40;81.10
36292;DHT22;22327;51.208;6.418;2022-11-15T15:14:48;17.40;81.10
36292;DHT22;22327;51.208;6.418;2022-11-15T15:17:14;17.30;81.30
36292;DHT22;22327;51.208;6.418;2022-11-15T15:19:40;17.30;81.60
36292;DHT22;22327;51.208;6.418;2022-11-15T15:22:09;17.30;81.80
36292;DHT22;22327;51.208;6.418;2022-11-15T15:24:36;17.30;82.20
36292;DHT22;22327;51.208;6.418;2022-11-15T15:27:02;17.20;82.30
36292;DHT22;22327;51.208;6.418;2022-11-15T15:29:27;17.20;82.50
36292;DHT22;22327;51.208;6.418;2022-11-15T15:31:53;17.10;83.00
36292;DHT22;22327;51.208;6.418;2022-11-15T15:34:19;17.10;83.50
36292;DHT22;22327;51.208;6.418;2022-11-15T15:36:44;17.00;84.00
36292;DHT22;22327;51.208;6.418;2022-11-15T15:39:10;16.90;84.30
36292;DHT22;22327;51.208;6.418;2022-11-15T15:41:37;16.90;84.60
36292;DHT22;22327;51.208;6.418;2022-11-15T15:44:02;16.90;85.00
36292;DHT22;22327;51.208;6.418;2022-11-15T15:46:28;16.90;85.30
36292;DHT22;22327;51.208;6.418;2022-11-15T15:48:53;16.80;85.60
36292;DHT22;22327;51.208;6.418;2022-11-15T15:51:19;16.80;85.80
36292;DHT22;22327;51.208;6.418;2022-11-15T15:53:44;16.80;86.10
36292;DHT22;22327;51.208;6.418;2022-11-15T15:56:10;16.80;86.40
36292;DHT22;22327;51.208;6.418;2022-11-15T15:58:36;16.70;86.40
36292;DHT22;22327;51.208;6.418;2022-11-15T16:01:01;16.80;86.80
36292;DHT22;22327;51.208;6.418;2022-11-15T16:03:27;16.70;87.10
36292;DHT22;22327;51.208;6.418;2022-11-15T16:05:53;16.70;87.30
36292;DHT22;22327;51.208;6.418;2022-11-15T16:08:20;16.60;87.60
36292;DHT22;22327;51.208;6.418;2022-11-15T16:10:46;16.60;87.90
36292;DHT22;22327;51.208;6.418;2022-11-15T16:13:12;16.60;88.20
36292;DHT22;22327;51.208;6.418;2022-11-15T16:15:37;16.60;88.20
36292;DHT22;22327;51.208;6.418;2022-11-15T16:18:04;16.70;88.20
36292;DHT22;22327;51.208;6.418;2022-11-15T16:23:00;16.60;88.30
36292;DHT22;22327;51.208;6.418;2022-11-15T16:25:26;16.60;88.60
36292;DHT22;22327;51.208;6.418;2022-11-15T16:27:51;16.60;88.60
36292;DHT22;22327;51.208;6.418;2022-11-15T16:30:20;16.60;88.80
36292;DHT22;22327;51.208;6.418;2022-11-15T16:32:46;16.60;88.90
36292;DHT22;22327;51.208;6.418;2022-11-15T16:35:15;16.50;89.00
36292;DHT22;22327;51.208;6.418;2022-11-15T16:37:42;16.60;89.10
36292;DHT22;22327;51.208;6.418;2022-11-15T16:42:48;16.60;89.20
36292;DHT22;22327;51.208;6.418;2022-11-15T16:45:13;16.60;89.30
36292;DHT22;22327;51.208;6.418;2022-11-15T16:47:39;16.60;89.20
36292;DHT22;22327;51.208;6.418;2022-11-15T16:50:05;16.60;89.20
36292;DHT22;22327;51.208;6.418;2022-11-15T16:52:31;16.70;89.40
36292;DHT22;22327;51.208;6.418;2022-11-15T16:54:56;16.60;89.30
36292;DHT22;22327;51.208;6.418;2022-11-15T16:57:21;16.60;89.40
36292;DHT22;22327;51.208;6.418;2022-11-15T16:59:47;16.60;89.50
36292;DHT22;22327;51.208;6.418;2022-11-15T17:02:13;16.60;89.70
36292;DHT22;22327;51.208;6.418;2022-11-15T17:04:39;16.70;90.10
36292;DHT22;22327;51.208;6.418;2022-11-15T17:07:05;16.70;90.30
36292;DHT22;22327;51.208;6.418;2022-11-15T17:09:31;16.70;90.50
36292;DHT22;22327;51.208;6.418;2022-11-15T17:11:57;16.60;90.80
36292;DHT22;22327;51.208;6.418;2022-11-15T17:14:22;16.60;91.00
36292;DHT22;22327;51.208;6.418;2022-11-15T17:16:48;16.60;91.10
36292;DHT22;22327;51.208;6.418;2022-11-15T17:19:15;16.60;91.30
36292;DHT22;22327;51.208;6.418;2022-11-15T17:21:42;16.50;91.50
36292;DHT22;22327;51.208;6.418;2022-11-15T17:24:08;16.50;91.50
36292;DHT22;22327;51.208;6.418;2022-11-15T17:26:34;16.50;91.70
36292;DHT22;22327;51.208;6.418;2022-11-15T17:28:59;16.50;91.70
36292;DHT22;22327;51.208;6.418;2022-11-15T17:31:29;16.40;91.80
36292;DHT22;22327;51.208;6.418;2022-11-15T17:33:59;16.40;92.00
36292;DHT22;22327;51.208;6.418;2022-11-15T17:36:24;16.30;92.20